Wind From: 20-06-2018 11:00 Until: 22:00 warning for: Wind Level: Yellow info button
suomi:
Tuulivaroitus maa-alueille: Länsituuli on voimakasta keskipäivästä alkaen, tuulen nopeus puuskissa 15 m/s.

svenska:
Vindvarning för landområden: Från och med middagen är den västliga vinden kraftigt, i vindbyarna 15 m/s.

english:
Wind warning for land areas: From noon on, strong winds from west may bring strong gusts of 15 m/s. 


Thunder radar more information blitzortung!


Löydät sääaseman tiedot myös:

European Weather Network

Finland Weather Exchange

Weather Underground

AWEKAS



Weather Underground säähistoriasivu

Päivittäin yhteenveto Helmikuu 9, 2017 Yksiköt:  Molemmat    Englantilaiset   Metriset
« Edellinen Päivä
Seuraava Päivä »
Päivittäin Viikoittain Kuukausittain Vuosittain Mukautettu
  Korkea: Matala: Keskiarvo:
Lämpötila: TemperatureC °F /  -17.8 °C -16.7 °F /  -27.1 °C -11.6 °F /  -24.2 °C
Kastepiste: DewpointC °F /  -17.8 °C -18.2 °F /  -27.9 °C -12.8 °F /  -24.9 °C
Kosteus: Humidity % 88 % 89 %
Tuulen nopeus: WindSpeedKMH mph /  0 km/h - 0 mph /  0 km/h
Tuulenpuuska: WindSpeedGustKMH mph /  0 km/h - -
Tuuli:- - North
Ilmanpaine: PressurehPa in /  0 hPa 1044.9 in /  35380.3 hPa -
Sade: 0.0 in /  0 mm    
Historical Graphs
 
 
Taulukkotiedot Helmikuu 9, 2017
Aika Lämpötila Kastepiste Ilmanpaine Tuuli Tuulen nopeus Tuulenpuuska Kosteus Sademäärä (tunneittain)
TemperatureC °F /  -17.8 °C DewpointC °F /  -17.8 °C PressurehPa in /  0 hPa Calm     Humidity % HourlyPrecipMM in /  0 mm
00:00 -15.7 °F /  -26.5 °C -17.1 °F /  -27.3 °C 1046.6 in /  35437.9 hPa Calm     89 % 0.0 in /  0 mm
00:15 -15.8 °F /  -26.6 °C -17.2 °F /  -27.3 °C 1046.6 in /  35437.9 hPa Calm     89 % 0.0 in /  0 mm
00:30 -15.9 °F /  -26.6 °C -17.3 °F /  -27.4 °C 1046.6 in /  35437.9 hPa Calm     89 % 0.0 in /  0 mm
00:45 -15.9 °F /  -26.6 °C -17.3 °F /  -27.4 °C 1046.3 in /  35427.7 hPa Calm     89 % 0.0 in /  0 mm
01:00 -16.1 °F /  -26.7 °C -17.6 °F /  -27.6 °C 1046.6 in /  35437.9 hPa Calm     88 % 0.0 in /  0 mm
01:15 -16.2 °F /  -26.8 °C -17.7 °F /  -27.6 °C 1046.3 in /  35427.7 hPa Calm     88 % 0.0 in /  0 mm
01:30 -16.2 °F /  -26.8 °C -17.7 °F /  -27.6 °C 1046.3 in /  35427.7 hPa Calm     88 % 0.0 in /  0 mm
01:45 -16.3 °F /  -26.8 °C -17.7 °F /  -27.6 °C 1046.3 in /  35427.7 hPa Calm     89 % 0.0 in /  0 mm
02:00 -16.2 °F /  -26.8 °C -17.6 °F /  -27.6 °C 1046.3 in /  35427.7 hPa Calm     89 % 0.0 in /  0 mm
02:15 -16.2 °F /  -26.8 °C -17.6 °F /  -27.6 °C 1045.9 in /  35414.2 hPa Calm     89 % 0.0 in /  0 mm
02:30 -16.2 °F /  -26.8 °C -17.6 °F /  -27.6 °C 1045.9 in /  35414.2 hPa Calm     89 % 0.0 in /  0 mm
02:45 -16.3 °F /  -26.8 °C -17.8 °F /  -27.7 °C 1045.9 in /  35414.2 hPa Calm     88 % 0.0 in /  0 mm
03:00 -16.3 °F /  -26.8 °C -17.8 °F /  -27.7 °C 1045.9 in /  35414.2 hPa Calm     88 % 0.0 in /  0 mm
03:15 -16.4 °F /  -26.9 °C -17.9 °F /  -27.7 °C 1045.9 in /  35414.2 hPa Calm     88 % 0.0 in /  0 mm
03:30 -16.6 °F /  -27 °C -18.1 °F /  -27.8 °C 1045.9 in /  35414.2 hPa Calm     88 % 0.0 in /  0 mm
03:45 -16.7 °F /  -27.1 °C -18.2 °F /  -27.9 °C 1045.9 in /  35414.2 hPa Calm     88 % 0.0 in /  0 mm
04:00 -16.2 °F /  -26.8 °C -17.6 °F /  -27.6 °C 1045.9 in /  35414.2 hPa Calm     89 % 0.0 in /  0 mm
04:15 -15.6 °F /  -26.4 °C -16.8 °F /  -27.1 °C 1045.6 in /  35404 hPa Calm     90 % 0.0 in /  0 mm
04:30 -15.1 °F /  -26.2 °C -16.2 °F /  -26.8 °C 1045.6 in /  35404 hPa Calm   3.2 mph /  5.1 km/h 91 % 0.0 in /  0 mm
04:45 -14.3 °F /  -25.7 °C -15.5 °F /  -26.4 °C 1045.6 in /  35404 hPa Calm     91 % 0.0 in /  0 mm
05:00 -14.1 °F /  -25.6 °C -15.3 °F /  -26.3 °C 1045.6 in /  35404 hPa Calm     90 % 0.0 in /  0 mm
05:15 -13.7 °F /  -25.4 °C -14.8 °F /  -26 °C 1045.6 in /  35404 hPa Calm     91 % 0.0 in /  0 mm
05:30 -13.3 °F /  -25.2 °C -14.5 °F /  -25.8 °C 1045.3 in /  35393.9 hPa Calm     91 % 0.0 in /  0 mm
05:45 -13.1 °F /  -25.1 °C -14.2 °F /  -25.7 °C 1045.6 in /  35404 hPa Calm     91 % 0.0 in /  0 mm
06:00 -12.8 °F /  -24.9 °C -14.0 °F /  -25.6 °C 1045.3 in /  35393.9 hPa Calm     91 % 0.0 in /  0 mm
06:15 -12.6 °F /  -24.8 °C -13.8 °F /  -25.4 °C 1045.3 in /  35393.9 hPa Calm     91 % 0.0 in /  0 mm
06:30 -12.3 °F /  -24.6 °C -13.3 °F /  -25.2 °C 1044.9 in /  35380.3 hPa Calm     92 % 0.0 in /  0 mm
06:45 -12.0 °F /  -24.4 °C -13.2 °F /  -25.1 °C 1044.9 in /  35380.3 hPa Calm     91 % 0.0 in /  0 mm
07:00 -11.6 °F /  -24.2 °C -12.6 °F /  -24.8 °C 1044.9 in /  35380.3 hPa Calm     92 % 0.0 in /  0 mm
07:15 -10.9 °F /  -23.8 °C -11.7 °F /  -24.3 °C 1044.9 in /  35380.3 hPa Calm   1.6 mph /  2.6 km/h 94 % 0.0 in /  0 mm
07:30 -9.1 °F /  -22.8 °C -9.8 °F /  -23.2 °C 1044.9 in /  35380.3 hPa Calm   4.8 mph /  7.7 km/h 95 % 0.0 in /  0 mm
07:45 -8.4 °F /  -22.4 °C -9.1 °F /  -22.8 °C 1044.9 in /  35380.3 hPa Calm   4.8 mph /  7.7 km/h 95 % 0.0 in /  0 mm
08:00 -8.3 °F /  -22.4 °C -9.3 °F /  -22.9 °C 1044.9 in /  35380.3 hPa North 1.6 mph /  2.6 km/h 6.4 mph /  10.3 km/h 93 % 0.0 in /  0 mm
08:15 -8.4 °F /  -22.4 °C -9.3 °F /  -22.9 °C 1044.9 in /  35380.3 hPa Calm   4.8 mph /  7.7 km/h 93 % 0.0 in /  0 mm
08:30 -8.4 °F /  -22.4 °C -9.4 °F /  -23 °C 1044.9 in /  35380.3 hPa Calm   3.2 mph /  5.1 km/h 93 % 0.0 in /  0 mm
08:45 -8.6 °F /  -22.6 °C -9.5 °F /  -23.1 °C 1044.9 in /  35380.3 hPa Calm   3.2 mph /  5.1 km/h 93 % 0.0 in /  0 mm
09:00 -8.6 °F /  -22.6 °C -9.5 °F /  -23.1 °C 1045.3 in /  35393.9 hPa Calm     93 % 0.0 in /  0 mm
09:15 -8.7 °F /  -22.6 °C -9.6 °F /  -23.1 °C 1045.3 in /  35393.9 hPa Calm     93 % 0.0 in /  0 mm
09:30 -8.8 °F /  -22.7 °C -9.8 °F /  -23.2 °C 1045.3 in /  35393.9 hPa Calm   1.6 mph /  2.6 km/h 92 % 0.0 in /  0 mm
09:45 -8.9 °F /  -22.7 °C -9.8 °F /  -23.2 °C 1045.3 in /  35393.9 hPa Calm     93 % 0.0 in /  0 mm
10:00 -8.9 °F /  -22.7 °C -9.8 °F /  -23.2 °C 1045.3 in /  35393.9 hPa Calm   1.6 mph /  2.6 km/h 93 % 0.0 in /  0 mm
10:15 -8.9 °F /  -22.7 °C -9.9 °F /  -23.3 °C 1045.3 in /  35393.9 hPa Calm     93 % 0.0 in /  0 mm
10:30 -8.9 °F /  -22.7 °C -10.0 °F /  -23.3 °C 1045.3 in /  35393.9 hPa Calm   1.6 mph /  2.6 km/h 92 % 0.0 in /  0 mm
10:45 -9.1 °F /  -22.8 °C -10.2 °F /  -23.4 °C 1045.6 in /  35404 hPa Calm   3.2 mph /  5.1 km/h 92 % 0.0 in /  0 mm
11:00 -9.1 °F /  -22.8 °C -10.2 °F /  -23.4 °C 1045.6 in /  35404 hPa Calm     92 % 0.0 in /  0 mm
11:15 -9.2 °F /  -22.9 °C -10.2 °F /  -23.4 °C 1045.6 in /  35404 hPa Calm     92 % 0.0 in /  0 mm
11:30 -9.2 °F /  -22.9 °C -10.4 °F /  -23.6 °C 1045.6 in /  35404 hPa Calm   3.2 mph /  5.1 km/h 91 % 0.0 in /  0 mm
11:45 -9.3 °F /  -22.9 °C -10.5 °F /  -23.6 °C 1045.6 in /  35404 hPa Calm   1.6 mph /  2.6 km/h 91 % 0.0 in /  0 mm
12:00 -9.4 °F /  -23 °C -10.6 °F /  -23.7 °C 1045.6 in /  35404 hPa Calm   1.6 mph /  2.6 km/h 91 % 0.0 in /  0 mm
12:15 -9.5 °F /  -23.1 °C -10.7 °F /  -23.7 °C 1045.6 in /  35404 hPa Calm   1.6 mph /  2.6 km/h 91 % 0.0 in /  0 mm
12:30 -9.5 °F /  -23.1 °C -10.8 °F /  -23.8 °C 1045.6 in /  35404 hPa Calm   1.6 mph /  2.6 km/h 90 % 0.0 in /  0 mm
12:45 -9.5 °F /  -23.1 °C -10.8 °F /  -23.8 °C 1045.6 in /  35404 hPa Calm     90 % 0.0 in /  0 mm
13:00 -9.6 °F /  -23.1 °C -10.9 °F /  -23.8 °C 1045.6 in /  35404 hPa Calm     90 % 0.0 in /  0 mm
13:15 -9.6 °F /  -23.1 °C -10.9 °F /  -23.8 °C 1045.6 in /  35404 hPa Calm     90 % 0.0 in /  0 mm
13:30 -9.4 °F /  -23 °C -10.9 °F /  -23.8 °C 1045.6 in /  35404 hPa Calm     89 % 0.0 in /  0 mm
13:45 -9.5 °F /  -23.1 °C -11.0 °F /  -23.9 °C 1045.6 in /  35404 hPa Calm     89 % 0.0 in /  0 mm
14:00 -9.5 °F /  -23.1 °C -11.0 °F /  -23.9 °C 1045.6 in /  35404 hPa Calm     89 % 0.0 in /  0 mm
14:15 -9.4 °F /  -23 °C -10.9 °F /  -23.8 °C 1045.6 in /  35404 hPa Calm     89 % 0.0 in /  0 mm
14:30 -9.4 °F /  -23 °C -11.1 °F /  -23.9 °C 1045.6 in /  35404 hPa Calm     88 % 0.0 in /  0 mm
14:45 -9.4 °F /  -23 °C -10.9 °F /  -23.8 °C 1045.6 in /  35404 hPa Calm     89 % 0.0 in /  0 mm
15:00 -9.4 °F /  -23 °C -10.9 °F /  -23.8 °C 1045.6 in /  35404 hPa Calm     89 % 0.0 in /  0 mm
15:15 -9.4 °F /  -23 °C -10.9 °F /  -23.8 °C 1045.6 in /  35404 hPa Calm     89 % 0.0 in /  0 mm
15:30 -9.5 °F /  -23.1 °C -11.0 °F /  -23.9 °C 1045.6 in /  35404 hPa Calm   1.6 mph /  2.6 km/h 89 % 0.0 in /  0 mm
15:45 -9.7 °F /  -23.2 °C -11.2 °F /  -24 °C 1045.9 in /  35414.2 hPa Calm   1.6 mph /  2.6 km/h 89 % 0.0 in /  0 mm
16:00 -9.9 °F /  -23.3 °C -11.4 °F /  -24.1 °C 1045.9 in /  35414.2 hPa Calm   1.6 mph /  2.6 km/h 89 % 0.0 in /  0 mm
16:15 -10.0 °F /  -23.3 °C -11.5 °F /  -24.2 °C 1045.9 in /  35414.2 hPa Calm     89 % 0.0 in /  0 mm
16:30 -10.0 °F /  -23.3 °C -11.3 °F /  -24.1 °C 1045.9 in /  35414.2 hPa Calm   1.6 mph /  2.6 km/h 90 % 0.0 in /  0 mm
16:45 -10.2 °F /  -23.4 °C -11.7 °F /  -24.3 °C 1045.9 in /  35414.2 hPa Calm   3.2 mph /  5.1 km/h 89 % 0.0 in /  0 mm
17:00 -10.6 °F /  -23.7 °C -12.2 °F /  -24.6 °C 1045.9 in /  35414.2 hPa Calm   3.2 mph /  5.1 km/h 88 % 0.0 in /  0 mm
17:15 -10.9 °F /  -23.8 °C -12.5 °F /  -24.7 °C 1045.9 in /  35414.2 hPa Calm     88 % 0.0 in /  0 mm
17:30 -11.1 °F /  -23.9 °C -12.7 °F /  -24.8 °C 1045.9 in /  35414.2 hPa Calm     88 % 0.0 in /  0 mm
17:45 -11.4 °F /  -24.1 °C -12.9 °F /  -24.9 °C 1045.9 in /  35414.2 hPa Calm     89 % 0.0 in /  0 mm
18:00 -11.7 °F /  -24.3 °C -13.1 °F /  -25.1 °C 1045.9 in /  35414.2 hPa Calm     89 % 0.0 in /  0 mm
18:15 -11.8 °F /  -24.3 °C -13.3 °F /  -25.2 °C 1045.9 in /  35414.2 hPa Calm     89 % 0.0 in /  0 mm
18:30 -12.0 °F /  -24.4 °C -13.4 °F /  -25.2 °C 1045.9 in /  35414.2 hPa Calm     89 % 0.0 in /  0 mm
18:45 -12.1 °F /  -24.5 °C -13.4 °F /  -25.2 °C 1045.9 in /  35414.2 hPa Calm     90 % 0.0 in /  0 mm
19:00 -11.9 °F /  -24.4 °C -13.1 °F /  -25.1 °C 1045.9 in /  35414.2 hPa Calm     91 % 0.0 in /  0 mm
19:15 -11.8 °F /  -24.3 °C -13.0 °F /  -25 °C 1046.3 in /  35427.7 hPa Calm     91 % 0.0 in /  0 mm
19:30 -11.8 °F /  -24.3 °C -13.1 °F /  -25.1 °C 1046.3 in /  35427.7 hPa Calm     90 % 0.0 in /  0 mm
19:45 -11.9 °F /  -24.4 °C -13.2 °F /  -25.1 °C 1046.3 in /  35427.7 hPa Calm     90 % 0.0 in /  0 mm
20:00 -11.9 °F /  -24.4 °C -13.3 °F /  -25.2 °C 1046.3 in /  35427.7 hPa Calm     90 % 0.0 in /  0 mm
20:15 -11.9 °F /  -24.4 °C -13.1 °F /  -25.1 °C 1046.3 in /  35427.7 hPa Calm     91 % 0.0 in /  0 mm
20:30 -11.9 °F /  -24.4 °C -13.1 °F /  -25.1 °C 1046.3 in /  35427.7 hPa Calm     91 % 0.0 in /  0 mm
20:45 -11.8 °F /  -24.3 °C -12.9 °F /  -24.9 °C 1046.6 in /  35437.9 hPa Calm   1.6 mph /  2.6 km/h 91 % 0.0 in /  0 mm
21:00 -11.6 °F /  -24.2 °C -12.8 °F /  -24.9 °C 1047.0 in /  35451.4 hPa Calm     91 % 0.0 in /  0 mm
21:15 -11.4 °F /  -24.1 °C -12.6 °F /  -24.8 °C 1047.0 in /  35451.4 hPa Calm   3.2 mph /  5.1 km/h 91 % 0.0 in /  0 mm
21:30 -11.3 °F /  -24.1 °C -12.3 °F /  -24.6 °C 1047.0 in /  35451.4 hPa Calm   3.2 mph /  5.1 km/h 92 % 0.0 in /  0 mm
21:45 -11.0 °F /  -23.9 °C -12.0 °F /  -24.4 °C 1047.0 in /  35451.4 hPa Calm     92 % 0.0 in /  0 mm
22:00 -10.9 °F /  -23.8 °C -12.1 °F /  -24.5 °C 1047.0 in /  35451.4 hPa Calm     91 % 0.0 in /  0 mm
22:15 -10.9 °F /  -23.8 °C -12.1 °F /  -24.5 °C 1047.3 in /  35461.6 hPa Calm   3.2 mph /  5.1 km/h 91 % 0.0 in /  0 mm
22:30 -10.9 °F /  -23.8 °C -12.1 °F /  -24.5 °C 1047.3 in /  35461.6 hPa Calm     91 % 0.0 in /  0 mm
22:45 -11.2 °F /  -24 °C -12.5 °F /  -24.7 °C 1047.3 in /  35461.6 hPa Calm     90 % 0.0 in /  0 mm
23:00 -11.4 °F /  -24.1 °C -12.8 °F /  -24.9 °C 1047.3 in /  35461.6 hPa Calm     90 % 0.0 in /  0 mm
23:15 -11.8 °F /  -24.3 °C -13.3 °F /  -25.2 °C 1047.6 in /  35471.7 hPa Calm     89 % 0.0 in /  0 mm
23:30 -12.3 °F /  -24.6 °C -13.6 °F /  -25.3 °C 1047.3 in /  35461.6 hPa Calm     90 % 0.0 in /  0 mm
23:45 -12.7 °F /  -24.8 °C -14.0 °F /  -25.6 °C 1047.3 in /  35461.6 hPa Calm     90 % 0.0 in /  0 mm
Esan sääasema
Terveisin Weather Underground - 2.75 mb

Alkuperäinen skripti  Jim McMurry - jmcmurry@mwt.net Sovitettu myös templatelle  Wim van der Kuil - Leuven-Template.eu

Laitteet joita käytämme:

Sääasema
Davis VP2

Sääasemaohjelma
Cumulus

Sääaseman tietokone
Asus EeePC

Palveluntarjoaja
Suncomet

Davis VP2

Cumulus

Asus EeePC

Suncomet